Time;durP1;ratioP1;P1;durP2;ratioP2;P2;SDS_P1;SDS_P2;PMS_P1;PMS_P2;Temp;Humidity;BMP_temperature;BMP_pressure;BME280_temperature;BME280_humidity;BME280_pressure;Samples;Min_cycle;Max_cycle;Signal;HPM_P1;HPM_P2
2022/08/31 00:04:32;;;;;;;4.10;3.63;;;;;;;16.70;73.12;102014.19;5033483;28;20044;-71
2022/08/31 00:06:58;;;;;;;3.72;3.20;;;;;;;16.74;72.61;102021.06;5037525;28;20029;-72
2022/08/31 00:09:23;;;;;;;6.85;3.40;;;;;;;16.66;73.26;102017.81;5033066;28;20120;-71
2022/08/31 00:11:49;;;;;;;5.63;3.50;;;;;;;16.65;73.08;102013.47;5033142;28;20025;-71
2022/08/31 00:14:14;;;;;;;4.00;3.60;;;;;;;16.59;73.51;102007.47;5032322;28;20095;-71
2022/08/31 00:16:42;;;;;;;5.85;3.55;;;;;;;16.61;73.84;102007.41;5032591;28;20441;-71
2022/08/31 00:19:08;;;;;;;4.03;3.63;;;;;;;16.53;74.13;102007.66;5032208;28;20024;-71
2022/08/31 00:21:34;;;;;;;5.40;3.78;;;;;;;16.53;74.04;102005.03;5032285;28;20033;-71
2022/08/31 00:23:59;;;;;;;5.43;3.38;;;;;;;16.53;74.29;102004.16;5033304;28;20389;-71
2022/08/31 00:26:25;;;;;;;5.05;3.40;;;;;;;16.52;74.58;102008.56;5032396;28;20017;-72
2022/08/31 00:28:51;;;;;;;7.53;3.75;;;;;;;16.45;74.75;102003.50;5033416;28;20470;-71
2022/08/31 00:31:16;;;;;;;5.43;3.50;;;;;;;16.46;75.06;102011.38;5032468;28;20492;-71
2022/08/31 00:33:42;;;;;;;4.25;3.30;;;;;;;16.48;75.12;102008.69;5031681;28;20034;-71
2022/08/31 00:36:11;;;;;;;4.43;3.55;;;;;;;16.48;74.93;102017.47;5032709;28;20026;-71
2022/08/31 00:38:38;;;;;;;6.18;3.40;;;;;;;16.46;75.44;102010.53;5032757;28;20492;-71
2022/08/31 00:41:06;;;;;;;4.93;3.50;;;;;;;16.47;75.42;102020.13;5031957;28;20079;-71
2022/08/31 00:43:34;;;;;;;6.75;3.47;;;;;;;16.44;75.25;102007.06;5032915;28;20092;-71
2022/08/31 00:45:59;;;;;;;4.75;3.10;;;;;;;16.48;75.72;102013.97;5032804;28;20025;-71
2022/08/31 00:48:25;;;;;;;4.32;3.70;;;;;;;16.46;75.43;102000.84;5031042;28;20099;-71
2022/08/31 00:50:50;;;;;;;4.65;3.20;;;;;;;16.51;75.52;102001.59;5033356;28;20553;-71
2022/08/31 00:53:16;;;;;;;4.70;3.75;;;;;;;16.49;75.80;102000.75;5031594;28;20044;-71
2022/08/31 00:55:41;;;;;;;4.10;3.22;;;;;;;16.52;75.97;102008.56;5030979;28;20030;-71
2022/08/31 00:58:10;;;;;;;4.32;2.97;;;;;;;16.40;75.57;101990.50;5036571;28;20037;-71
2022/08/31 01:00:37;;;;;;;4.18;3.63;;;;;;;16.44;75.70;102001.81;5034017;28;20033;-71
2022/08/31 01:03:05;;;;;;;4.85;3.17;;;;;;;16.44;75.72;102010.56;5029827;28;20017;-71
2022/08/31 01:05:31;;;;;;;5.97;3.15;;;;;;;16.38;76.24;102008.09;5036432;28;20531;-71
2022/08/31 01:07:58;;;;;;;6.88;3.42;;;;;;;16.43;76.12;102010.63;5029980;28;20030;-71
2022/08/31 01:10:29;;;;;;;5.80;3.40;;;;;;;16.40;76.04;102006.28;5030135;28;20033;-71
2022/08/31 01:12:56;;;;;;;4.57;3.17;;;;;;;16.38;76.54;102013.34;5044299;28;20488;-71
2022/08/31 01:15:23;;;;;;;5.13;3.60;;;;;;;16.36;76.71;102004.66;5032970;28;20048;-71
2022/08/31 01:17:51;;;;;;;6.20;3.30;;;;;;;16.33;76.71;102005.63;5040422;28;20029;-71
2022/08/31 01:20:26;;;;;;;5.60;3.15;;;;;;;16.33;76.06;102004.75;5034220;28;20135;-71
2022/08/31 01:23:18;;;;;;;6.78;3.42;;;;;;;16.30;75.87;102004.84;5031814;28;20053;-71
2022/08/31 01:25:46;;;;;;;3.50;3.05;;;;;;;16.26;77.04;102003.22;5032086;28;20474;-71
2022/08/31 01:28:12;;;;;;;8.10;4.00;;;;;;;16.21;76.70;102000.69;5031919;28;20075;-71
2022/08/31 01:30:39;;;;;;;4.47;3.00;;;;;;;16.20;77.11;102004.25;5031455;28;20030;-71
2022/08/31 01:33:04;;;;;;;4.03;3.17;;;;;;;16.14;77.10;101992.13;5033386;28;20018;-71
2022/08/31 01:35:32;;;;;;;9.68;2.83;;;;;;;16.17;77.50;102000.84;5031121;28;20037;-71
2022/08/31 01:37:57;;;;;;;5.43;3.00;;;;;;;16.12;77.25;102001.84;5032054;28;20021;-71
2022/08/31 01:40:44;;;;;;;4.32;3.33;;;;;;;16.10;76.74;101995.75;5030824;28;20041;-71
2022/08/31 01:43:09;;;;;;;5.20;3.15;;;;;;;16.06;77.92;102001.16;5016925;28;20037;-71
2022/08/31 01:45:34;;;;;;;5.78;3.40;;;;;;;16.09;77.83;102008.97;5031781;28;20049;-71
2022/08/31 01:47:59;;;;;;;4.47;3.17;;;;;;;16.06;77.63;102006.41;5031415;28;20044;-71
2022/08/31 01:50:25;;;;;;;4.75;3.05;;;;;;;15.99;77.78;101997.81;5030717;28;20026;-71
2022/08/31 01:52:50;;;;;;;4.50;3.20;;;;;;;16.00;77.92;102007.44;5031705;28;20110;-71
2022/08/31 01:55:16;;;;;;;4.95;3.17;;;;;;;16.00;78.04;102011.84;5031269;28;20025;-71
2022/08/31 01:57:41;;;;;;;3.53;3.20;;;;;;;15.97;78.12;102012.78;5030240;28;20105;-71
2022/08/31 02:00:08;;;;;;;4.97;3.20;;;;;;;15.96;78.38;102013.69;5031521;28;20057;-71
2022/08/31 02:02:33;;;;;;;5.53;3.10;;;;;;;15.94;78.54;102015.50;5031644;28;20026;-71
2022/08/31 02:04:59;;;;;;;3.80;2.92;;;;;;;15.89;78.92;102022.63;5030997;28;20029;-71
2022/08/31 02:07:25;;;;;;;5.10;3.50;;;;;;;15.86;78.88;102025.38;5031418;28;20025;-71
2022/08/31 02:09:50;;;;;;;4.50;3.60;;;;;;;15.81;79.14;102021.97;5040183;28;20025;-71
2022/08/31 02:12:15;;;;;;;3.58;3.20;;;;;;;15.80;79.04;102021.13;5030306;28;20022;-71
2022/08/31 02:14:40;;;;;;;3.60;3.30;;;;;;;15.79;79.52;102019.38;5030972;28;20069;-71
2022/08/31 02:17:07;;;;;;;6.75;3.53;;;;;;;15.79;78.80;102019.38;5031190;28;20096;-71
2022/08/31 02:19:32;;;;;;;3.38;3.08;;;;;;;15.81;79.37;102014.09;5029981;28;20029;-71
2022/08/31 02:21:58;;;;;;;6.97;3.38;;;;;;;15.67;79.56;101999.56;5032888;28;20033;-70
2022/08/31 02:24:23;;;;;;;4.82;3.55;;;;;;;15.75;79.29;102019.50;5031295;28;20480;-71
2022/08/31 02:26:48;;;;;;;5.07;3.78;;;;;;;15.77;79.50;102021.19;5031840;28;20034;-71
2022/08/31 02:29:14;;;;;;;4.22;3.80;;;;;;;15.76;79.50;102027.38;5029410;28;20026;-71
2022/08/31 02:31:39;;;;;;;8.15;3.72;;;;;;;15.73;79.78;102022.19;5028419;28;20372;-71
2022/08/31 02:34:04;;;;;;;5.05;3.42;;;;;;;15.70;79.69;102019.66;5033744;28;20408;-71
2022/08/31 02:36:31;;;;;;;3.97;2.92;;;;;;;15.65;79.79;102014.44;5030667;28;20034;-71
2022/08/31 02:38:56;;;;;;;6.22;3.58;;;;;;;15.67;80.31;102031.09;5029011;28;20021;-71
2022/08/31 02:41:21;;;;;;;5.80;3.70;;;;;;;15.62;80.01;102021.56;5029522;28;20079;-71
2022/08/31 02:43:47;;;;;;;6.82;3.63;;;;;;;15.56;80.13;102027.81;5031878;28;20481;-71
2022/08/31 02:46:12;;;;;;;5.28;3.80;;;;;;;15.55;80.34;102020.84;5031129;28;20037;-71
2022/08/31 02:48:37;;;;;;;10.93;4.13;;;;;;;15.50;80.25;102020.13;5032923;28;20091;-71
2022/08/31 02:51:06;;;;;;;3.90;3.50;;;;;;;15.48;80.51;102018.44;5034158;28;20059;-71
2022/08/31 02:53:32;;;;;;;4.65;3.63;;;;;;;15.50;80.73;102014.88;5032652;28;20025;-71
2022/08/31 02:55:58;;;;;;;3.83;3.50;;;;;;;15.46;80.50;102015.81;5034371;28;20389;-71
2022/08/31 02:58:23;;;;;;;4.13;3.55;;;;;;;15.44;80.89;102015.03;5032074;28;20091;-71
2022/08/31 03:00:49;;;;;;;10.05;4.43;;;;;;;15.40;80.91;102018.59;5033258;28;20112;-71
2022/08/31 03:03:15;;;;;;;4.20;3.80;;;;;;;15.37;81.21;102016.09;5033935;28;20033;-71
2022/08/31 03:05:40;;;;;;;5.53;3.47;;;;;;;15.34;81.35;102016.16;5033800;28;20416;-71
2022/08/31 03:08:06;;;;;;;6.25;3.60;;;;;;;15.29;81.41;102024.13;5032922;28;20048;-71
2022/08/31 03:10:31;;;;;;;4.00;3.60;;;;;;;15.26;81.33;102015.47;5033769;28;20124;-71
2022/08/31 03:12:57;;;;;;;4.80;3.92;;;;;;;15.26;81.76;102013.69;5035020;28;20060;-71
2022/08/31 03:15:23;;;;;;;7.85;4.10;;;;;;;15.23;81.54;102019.88;5030889;28;20194;-71
2022/08/31 03:17:48;;;;;;;5.50;3.65;;;;;;;15.18;81.39;102016.53;5030189;28;20029;-71
2022/08/31 03:20:16;;;;;;;4.45;3.88;;;;;;;15.16;81.97;102018.31;5032596;28;20028;-71
2022/08/31 03:22:41;;;;;;;4.43;3.65;;;;;;;15.22;81.79;102022.56;5023345;28;20021;-71
2022/08/31 03:25:08;;;;;;;6.45;4.05;;;;;;;15.16;81.79;102022.69;5033882;28;20152;-71
2022/08/31 03:27:36;;;;;;;5.13;3.90;;;;;;;15.13;81.87;102021.00;5033673;28;20032;-71
2022/08/31 03:30:05;;;;;;;3.75;3.45;;;;;;;15.09;81.98;102027.22;5031502;28;20030;-71
2022/08/31 03:32:31;;;;;;;6.47;3.80;;;;;;;15.07;82.39;102026.41;5033455;28;20060;-71
2022/08/31 03:34:58;;;;;;;4.57;3.70;;;;;;;15.08;82.27;102022.03;5033336;28;20057;-71
2022/08/31 03:37:24;;;;;;;5.70;4.18;;;;;;;15.06;82.48;102026.44;5044579;28;20091;-71
2022/08/31 03:39:49;;;;;;;4.18;3.75;;;;;;;14.99;82.31;102013.44;5033365;28;20508;-71
2022/08/31 03:42:15;;;;;;;5.10;4.15;;;;;;;14.99;82.54;102020.47;5039083;28;20370;-71
2022/08/31 03:44:40;;;;;;;6.35;4.00;;;;;;;14.95;82.76;102029.31;5034177;28;20025;-71
2022/08/31 03:47:05;;;;;;;5.20;3.40;;;;;;;14.91;82.48;102027.66;5033785;28;20055;-71
2022/08/31 03:49:31;;;;;;;5.25;4.00;;;;;;;14.88;82.54;102010.22;5032739;28;20057;-71
2022/08/31 03:51:56;;;;;;;5.72;3.70;;;;;;;14.92;82.94;102026.78;5034078;28;20021;-71
2022/08/31 03:54:22;;;;;;;7.53;4.22;;;;;;;14.95;82.73;102032.81;5036102;28;20389;-71
2022/08/31 03:56:47;;;;;;;4.50;3.95;;;;;;;14.95;82.66;102029.31;5031796;28;20032;-71
2022/08/31 03:59:13;;;;;;;5.97;3.83;;;;;;;14.96;81.93;102025.78;5033773;28;20029;-71
2022/08/31 04:01:39;;;;;;;6.25;3.85;;;;;;;14.97;82.10;102023.13;5033567;28;20026;-71
2022/08/31 04:04:04;;;;;;;5.22;3.65;;;;;;;14.99;81.61;102023.97;5032733;28;20374;-71
2022/08/31 04:06:30;;;;;;;4.00;3.65;;;;;;;14.97;81.40;102017.88;5033481;28;20079;-71
2022/08/31 04:08:55;;;;;;;3.97;3.58;;;;;;;14.99;81.49;102025.72;5033756;28;20017;-71
2022/08/31 04:11:21;;;;;;;4.25;3.58;;;;;;;14.98;80.61;102030.13;5030853;28;20030;-71
2022/08/31 04:13:47;;;;;;;3.90;3.50;;;;;;;14.98;80.73;102024.00;5019315;28;20079;-71
2022/08/31 04:16:17;;;;;;;6.38;3.58;;;;;;;14.97;80.63;102024.88;5033374;28;20033;-71
2022/08/31 04:18:44;;;;;;;4.65;3.10;;;;;;;14.99;80.59;102023.09;5032689;28;20030;-71
2022/08/31 04:21:21;;;;;;;3.58;3.22;;;;;;;14.96;80.26;102031.03;5033298;28;20086;-71
2022/08/31 04:23:49;;;;;;;5.65;3.13;;;;;;;14.87;80.54;102026.84;5033067;28;20362;-71
2022/08/31 04:26:22;;;;;;;6.40;3.10;;;;;;;14.79;80.37;102030.56;5032638;28;20022;-71
2022/08/31 04:28:47;;;;;;;6.55;3.65;;;;;;;14.75;80.58;102025.38;5033852;28;20029;-71
2022/08/31 04:31:13;;;;;;;4.65;3.40;;;;;;;14.75;80.82;102030.63;5032219;28;20028;-71
2022/08/31 04:33:39;;;;;;;8.18;3.42;;;;;;;14.72;80.59;102037.72;5032630;28;20029;-71
2022/08/31 04:36:10;;;;;;;6.72;3.70;;;;;;;14.65;80.75;102034.34;5043752;28;20028;-71
2022/08/31 04:38:35;;;;;;;4.78;3.10;;;;;;;14.65;80.95;102042.22;5028343;28;20045;-71
2022/08/31 04:41:08;;;;;;;3.63;3.05;;;;;;;14.61;80.57;102034.44;5040972;28;20448;-71
2022/08/31 04:43:35;;;;;;;5.20;3.60;;;;;;;14.55;80.33;102032.84;5043624;28;20112;-70
2022/08/31 04:46:03;;;;;;;5.53;3.13;;;;;;;14.52;80.50;102038.16;5030140;28;20025;-72
2022/08/31 04:48:28;;;;;;;5.85;3.10;;;;;;;14.51;79.55;102034.63;5036521;28;20056;-71
2022/08/31 04:51:06;;;;;;;7.28;3.30;;;;;;;14.48;79.75;102041.66;5037665;28;20017;-71
2022/08/31 04:53:32;;;;;;;6.00;3.55;;;;;;;14.44;80.14;102042.63;5019415;28;20502;-71
2022/08/31 04:55:58;;;;;;;5.80;3.58;;;;;;;14.37;80.27;102043.66;5045966;28;20033;-71
2022/08/31 04:58:23;;;;;;;5.15;3.10;;;;;;;14.34;79.77;102054.22;5032733;28;20469;-71
2022/08/31 05:00:50;;;;;;;4.53;3.30;;;;;;;14.30;79.55;102050.78;5032093;28;20474;-71
2022/08/31 05:03:17;;;;;;;4.40;3.42;;;;;;;14.24;79.84;102043.91;5031895;28;20079;-71
2022/08/31 05:05:45;;;;;;;4.28;3.20;;;;;;;14.18;79.81;102041.38;5032101;28;20025;-71
2022/08/31 05:08:11;;;;;;;6.45;3.25;;;;;;;14.24;79.90;102041.28;5043001;28;20025;-71
2022/08/31 05:10:36;;;;;;;4.63;3.03;;;;;;;14.25;80.35;102047.38;5032328;28;20497;-71
2022/08/31 05:13:01;;;;;;;4.05;3.35;;;;;;;14.19;80.05;102053.63;5032313;28;20106;-71
2022/08/31 05:15:26;;;;;;;4.63;3.10;;;;;;;14.18;80.25;102051.88;5031266;28;20477;-71
2022/08/31 05:17:52;;;;;;;5.32;3.00;;;;;;;14.17;80.10;102055.41;5032360;28;20021;-71
2022/08/31 05:20:17;;;;;;;3.75;2.97;;;;;;;14.17;80.56;102047.53;5031808;28;20386;-71
2022/08/31 05:22:42;;;;;;;6.03;3.58;;;;;;;14.20;80.24;102057.97;5031017;28;20033;-71
2022/08/31 05:25:08;;;;;;;6.15;3.00;;;;;;;14.20;80.21;102051.88;5032043;28;20049;-71
2022/08/31 05:27:35;;;;;;;4.28;2.80;;;;;;;14.18;80.34;102054.50;5031179;28;20579;-71
2022/08/31 05:30:00;;;;;;;3.63;2.90;;;;;;;14.18;79.68;102062.38;5031830;28;20044;-71
2022/08/31 05:32:26;;;;;;;4.45;2.88;;;;;;;14.17;79.00;102062.41;5032011;28;20801;-71
2022/08/31 05:34:51;;;;;;;5.75;3.10;;;;;;;14.19;79.24;102064.13;5031512;28;20128;-71
2022/08/31 05:37:16;;;;;;;6.90;3.10;;;;;;;14.19;79.14;102061.50;5031482;28;20025;-71
2022/08/31 05:39:42;;;;;;;6.88;2.45;;;;;;;14.26;78.20;102063.09;5031400;28;20020;-71
2022/08/31 05:42:07;;;;;;;6.43;2.90;;;;;;;14.23;78.20;102063.16;5030997;28;20465;-71
2022/08/31 05:44:34;;;;;;;6.28;2.90;;;;;;;14.32;77.73;102063.84;5040373;28;20021;-71
2022/08/31 05:47:00;;;;;;;5.97;2.78;;;;;;;14.28;76.88;102053.44;5032050;28;20493;-71
2022/08/31 05:49:25;;;;;;;5.63;2.50;;;;;;;14.34;77.11;102062.09;5028899;28;20038;-71
2022/08/31 05:51:50;;;;;;;4.35;2.80;;;;;;;14.37;76.96;102059.41;5030283;28;20095;-71
2022/08/31 05:54:16;;;;;;;7.07;2.38;;;;;;;14.38;76.24;102059.34;5029535;28;20075;-71
2022/08/31 05:56:43;;;;;;;5.15;2.53;;;;;;;14.42;76.19;102068.03;5030215;28;20029;-71
2022/08/31 05:59:08;;;;;;;4.78;2.60;;;;;;;14.47;75.66;102079.31;5030218;28;20488;-71
2022/08/31 06:01:37;;;;;;;2.95;2.25;;;;;;;14.46;75.71;102077.59;5028935;28;20021;-71
2022/08/31 06:04:03;;;;;;;4.15;2.50;;;;;;;14.49;75.65;102074.91;5037191;28;20033;-71
2022/08/31 06:06:29;;;;;;;5.25;2.60;;;;;;;14.50;74.68;102079.25;5032650;28;20028;-71
2022/08/31 06:08:55;;;;;;;3.22;2.30;;;;;;;14.53;74.72;102084.47;5031678;28;20017;-71
2022/08/31 06:11:23;;;;;;;5.15;2.33;;;;;;;14.50;74.05;102088.00;5030428;28;20055;-71
2022/08/31 06:13:51;;;;;;;6.85;2.33;;;;;;;14.53;74.28;102081.84;5030927;28;20481;-71
2022/08/31 06:16:17;;;;;;;4.03;2.28;;;;;;;14.57;73.21;102078.25;5032765;28;20033;-71
2022/08/31 06:18:49;;;;;;;5.30;2.50;;;;;;;14.57;73.34;102054.63;5031974;28;20375;-71
2022/08/31 06:21:20;;;;;;;3.28;2.60;;;;;;;14.72;73.39;102087.59;5035648;28;20037;-71
2022/08/31 06:23:48;;;;;;;2.90;2.42;;;;;;;14.80;73.55;102079.53;5035043;28;20029;-71
2022/08/31 06:26:15;;;;;;;4.55;2.55;;;;;;;14.88;72.19;102090.75;5035432;28;20462;-71
2022/08/31 06:28:46;;;;;;;8.00;2.55;;;;;;;15.03;71.84;102085.16;5031995;28;20040;-70
2022/08/31 06:31:18;;;;;;;2.90;2.50;;;;;;;15.17;71.52;102092.72;5031495;28;20075;-71
2022/08/31 06:33:44;;;;;;;5.20;2.60;;;;;;;15.28;70.43;102095.97;5033941;28;20132;-71
2022/08/31 06:36:11;;;;;;;3.35;2.45;;;;;;;15.34;70.27;102081.84;5029721;28;20108;-71
2022/08/31 06:38:37;;;;;;;5.10;2.42;;;;;;;15.41;69.72;102091.28;5031786;28;20079;-71
2022/08/31 06:41:16;;;;;;;4.03;2.63;;;;;;;15.44;69.98;102096.47;5033009;28;20036;-71
2022/08/31 06:43:42;;;;;;;4.15;2.65;;;;;;;15.52;70.14;102105.03;5035393;28;20057;-71
2022/08/31 06:46:08;;;;;;;3.03;2.20;;;;;;;15.56;68.70;102092.69;5033726;28;20072;-71
2022/08/31 06:48:34;;;;;;;7.18;2.22;;;;;;;15.57;68.30;102105.81;5033373;28;20485;-71
2022/08/31 06:50:59;;;;;;;4.53;2.70;;;;;;;15.62;68.24;102100.41;5033643;28;20064;-71
2022/08/31 06:53:25;;;;;;;3.30;2.45;;;;;;;15.57;67.94;102094.44;5033275;28;20451;-71
2022/08/31 06:55:50;;;;;;;3.15;2.42;;;;;;;15.57;68.96;102099.69;5042026;28;20542;-71
2022/08/31 06:58:15;;;;;;;6.43;2.42;;;;;;;15.65;68.66;102102.97;5032752;28;20072;-71
2022/08/31 07:00:41;;;;;;;3.75;2.80;;;;;;;15.66;67.45;102107.31;5029407;28;20037;-72
2022/08/31 07:03:22;;;;;;;4.93;2.50;;;;;;;15.73;67.55;102108.06;5030727;28;20028;-72
2022/08/31 07:05:51;;;;;;;3.28;2.35;;;;;;;15.76;67.01;102113.25;5033131;28;20029;-72
2022/08/31 07:08:20;;;;;;;3.13;2.30;;;;;;;15.83;67.22;102105.19;5033306;28;20033;-72
2022/08/31 07:10:46;;;;;;;4.05;2.50;;;;;;;15.88;66.68;102110.31;5034864;28;20029;-72
2022/08/31 07:13:12;;;;;;;3.35;2.53;;;;;;;15.89;67.24;102104.16;5031968;28;20091;-72
2022/08/31 07:15:37;;;;;;;6.57;2.50;;;;;;;15.94;66.09;102117.19;5037639;28;20039;-72
2022/08/31 07:18:03;;;;;;;3.58;2.38;;;;;;;16.01;65.75;102117.00;5034309;28;20025;-72
2022/08/31 07:20:28;;;;;;;8.27;2.70;;;;;;;16.02;65.35;102104.69;5044643;28;20116;-72
2022/08/31 07:22:55;;;;;;;3.00;2.63;;;;;;;16.11;65.12;102110.59;5033312;28;20095;-72
2022/08/31 07:25:21;;;;;;;4.38;2.40;;;;;;;16.17;65.93;102109.56;5034056;28;20128;-72
2022/08/31 07:27:49;;;;;;;5.75;2.90;;;;;;;16.18;65.36;102106.00;5033059;28;20517;-71
2022/08/31 07:30:15;;;;;;;3.35;2.63;;;;;;;16.20;65.07;102104.22;5033424;28;20049;-72
2022/08/31 07:32:40;;;;;;;3.08;2.30;;;;;;;16.27;64.92;102105.78;5031782;28;20026;-72
2022/08/31 07:35:07;;;;;;;5.22;2.80;;;;;;;16.28;64.69;102112.75;5030297;28;20029;-72
2022/08/31 07:43:03;;;;;;;3.95;2.38;;;;;;;16.37;64.77;102111.66;5033311;28;20443;-72
2022/08/31 07:45:29;;;;;;;3.58;2.33;;;;;;;16.42;64.54;102103.66;5033916;28;20104;-72
2022/08/31 07:47:56;;;;;;;4.45;2.65;;;;;;;16.51;64.44;102104.25;5032448;28;20037;-72
2022/08/31 07:50:22;;;;;;;7.50;2.22;;;;;;;16.57;64.59;102109.31;5030689;28;20038;-71
2022/08/31 07:52:52;;;;;;;3.42;2.30;;;;;;;16.68;65.26;102106.41;5033696;28;20033;-72
2022/08/31 07:55:20;;;;;;;5.90;2.40;;;;;;;16.77;64.90;102118.44;5032589;28;20397;-71
2022/08/31 07:57:45;;;;;;;3.25;2.83;;;;;;;16.83;63.25;102115.66;5033833;28;20033;-71
2022/08/31 08:00:18;;;;;;;4.45;2.20;;;;;;;16.92;64.20;102109.25;5033536;28;20376;-71
2022/08/31 08:02:47;;;;;;;3.95;2.55;;;;;;;17.00;63.46;102112.50;5033407;28;20479;-71
2022/08/31 08:05:20;;;;;;;5.05;2.45;;;;;;;17.05;63.06;102115.88;5033284;28;20351;-71
2022/08/31 08:07:48;;;;;;;5.22;2.63;;;;;;;17.12;62.65;102122.69;5033957;28;20370;-71
2022/08/31 08:10:15;;;;;;;4.75;2.60;;;;;;;17.11;63.04;102110.41;5032558;28;20075;-71
2022/08/31 08:12:47;;;;;;;3.28;2.65;;;;;;;17.18;63.13;102122.50;5033608;28;20030;-71
2022/08/31 08:15:13;;;;;;;6.15;2.65;;;;;;;17.24;63.20;102121.44;5033106;28;20465;-71
2022/08/31 08:17:39;;;;;;;3.58;2.55;;;;;;;17.32;63.63;102124.69;5032732;28;20029;-71
2022/08/31 08:20:05;;;;;;;3.25;2.45;;;;;;;17.40;63.25;102127.13;5033195;28;20036;-71
2022/08/31 08:22:30;;;;;;;4.78;2.60;;;;;;;17.45;62.89;102128.66;5033042;28;20366;-71
2022/08/31 08:25:03;;;;;;;5.20;2.67;;;;;;;17.54;63.73;102131.00;5032672;28;20033;-71
2022/08/31 08:27:28;;;;;;;2.92;2.40;;;;;;;17.70;63.35;102138.44;5033045;28;20432;-71
2022/08/31 08:29:54;;;;;;;3.22;2.92;;;;;;;17.94;61.76;102137.66;5033624;28;20041;-71
2022/08/31 08:32:19;;;;;;;3.63;2.88;;;;;;;18.19;61.28;102128.91;5032068;28;20052;-71
2022/08/31 08:34:45;;;;;;;4.95;3.17;;;;;;;18.40;61.16;102132.53;5033333;28;20017;-72
2022/08/31 08:37:10;;;;;;;3.35;2.75;;;;;;;18.57;60.30;102129.28;5031136;28;20021;-71
2022/08/31 08:39:38;;;;;;;8.88;2.90;;;;;;;18.75;60.37;102133.94;5041104;28;20033;-72
2022/08/31 08:42:07;;;;;;;3.00;2.58;;;;;;;19.00;59.96;102139.19;5031752;28;20099;-72
2022/08/31 08:44:32;;;;;;;3.47;2.80;;;;;;;19.15;59.40;102137.72;5033481;28;20032;-71
2022/08/31 08:47:01;;;;;;;4.05;2.70;;;;;;;19.21;58.13;102141.91;5038045;28;20099;-71
2022/08/31 08:49:27;;;;;;;5.45;3.22;;;;;;;19.05;58.59;102139.00;5036522;28;20041;-71
2022/08/31 08:51:56;;;;;;;6.60;3.30;;;;;;;18.89;59.23;102138.69;5032089;28;20029;-71
2022/08/31 08:54:37;;;;;;;5.20;2.97;;;;;;;18.75;60.33;102133.94;5032031;28;20038;-71
2022/08/31 08:57:13;;;;;;;7.43;3.15;;;;;;;18.57;60.43;102146.00;5032432;28;20026;-72
2022/08/31 08:59:43;;;;;;;8.82;3.95;;;;;;;18.31;60.67;102131.13;5033477;28;20037;-71
2022/08/31 09:02:13;;;;;;;4.70;3.38;;;;;;;18.18;61.70;102129.78;5037251;28;20022;-72
2022/08/31 09:05:17;;;;;;;6.55;3.53;;;;;;;18.20;61.95;102130.63;5032304;28;20075;-71
2022/08/31 09:08:15;;;;;;;5.77;3.03;;;;;;;18.39;61.31;102131.69;4993995;28;20106;-71
2022/08/31 09:10:44;;;;;;;6.20;3.50;;;;;;;18.60;61.35;102127.41;5021248;28;20287;-71
2022/08/31 09:13:31;;;;;;;4.85;3.17;;;;;;;18.78;61.08;102125.91;5042220;28;20031;-71
2022/08/31 09:16:16;;;;;;;6.55;3.45;;;;;;;18.94;60.05;102131.47;5032560;28;20112;-71
2022/08/31 09:18:51;;;;;;;11.35;3.55;;;;;;;19.08;60.42;102128.31;5032300;28;20363;-71
2022/08/31 09:21:21;;;;;;;9.93;3.70;;;;;;;19.16;58.73;102121.81;5031131;28;20052;-71
2022/08/31 09:23:53;;;;;;;6.07;3.60;;;;;;;19.21;59.26;102123.41;5032393;28;20112;-72
2022/08/31 09:26:26;;;;;;;8.52;3.72;;;;;;;19.35;59.22;102132.50;5032063;28;20065;-71
2022/08/31 09:28:52;;;;;;;11.70;4.25;;;;;;;19.39;58.71;102115.59;5031432;28;20554;-71
2022/08/31 09:31:33;;;;;;;7.07;4.03;;;;;;;19.45;59.81;102118.91;5031716;28;20057;-72
2022/08/31 09:34:00;;;;;;;7.90;4.05;;;;;;;19.42;59.48;102126.06;5031254;28;20128;-72
2022/08/31 09:36:32;;;;;;;8.27;4.18;;;;;;;19.32;59.17;102129.97;5029423;28;20073;-71
2022/08/31 09:39:16;;;;;;;6.60;3.88;;;;;;;19.30;59.08;102118.59;5030657;28;20029;-71
2022/08/31 09:41:43;;;;;;;5.53;3.60;;;;;;;19.34;60.12;102128.13;5030959;28;20116;-71
2022/08/31 09:44:27;;;;;;;10.10;4.15;;;;;;;19.58;59.14;102126.28;5036375;28;20032;-71
2022/08/31 09:46:59;;;;;;;8.45;4.38;;;;;;;19.77;59.12;102126.41;5028924;28;20032;-71
2022/08/31 09:49:27;;;;;;;7.13;4.10;;;;;;;20.23;58.73;102135.03;5035051;28;20041;-72
2022/08/31 09:55:12;;;;;;;11.05;4.32;;;;;;;20.64;57.26;102135.03;5033159;28;20117;-71
2022/08/31 09:55:17;;;;;;;7.10;4.45;;;;;;;20.86;55.67;102118.13;5029235;28;20048;-72
2022/08/31 09:57:52;;;;;;;4.45;4.05;;;;;;;21.01;55.41;102112.97;5031341;28;20080;-76
2022/08/31 10:00:38;;;;;;;7.55;4.40;;;;;;;21.27;55.12;102108.22;5040098;28;20032;-76
2022/08/31 10:03:18;;;;;;;6.07;3.58;;;;;;;21.55;54.78;102104.25;5030192;28;20035;-76
2022/08/31 10:05:44;;;;;;;5.20;4.22;;;;;;;21.61;53.75;102107.47;5030211;28;20033;-77
2022/08/31 10:08:27;;;;;;;8.32;4.35;;;;;;;21.64;54.45;102104.66;5031298;28;20478;-76
2022/08/31 10:10:57;;;;;;;6.77;5.07;;;;;;;21.55;53.53;102107.78;5029911;28;20030;-77
2022/08/31 10:13:33;;;;;;;6.70;5.43;;;;;;;21.40;53.74;102108.53;5030450;28;20276;-77
2022/08/31 10:16:08;;;;;;;10.73;4.32;;;;;;;21.30;54.32;102101.94;5031044;28;20072;-76
2022/08/31 10:18:54;;;;;;;7.28;4.43;;;;;;;21.51;54.30;102095.59;5028958;28;20033;-76
2022/08/31 10:21:28;;;;;;;12.55;4.47;;;;;;;21.72;53.94;102099.84;5028289;28;20492;-76
2022/08/31 10:24:33;;;;;;;7.85;4.03;;;;;;;21.98;54.45;102095.00;5033980;28;20550;-76
2022/08/31 10:27:11;;;;;;;7.95;4.55;;;;;;;22.26;52.97;102105.06;5027770;28;20053;-76
2022/08/31 10:30:01;;;;;;;7.88;4.43;;;;;;;22.59;52.58;102097.06;5041101;28;20127;-76
2022/08/31 10:32:35;;;;;;;7.28;3.85;;;;;;;22.80;51.41;102102.19;5036896;28;20033;-76
2022/08/31 10:35:08;;;;;;;6.80;4.32;;;;;;;22.95;50.76;102106.66;5031155;28;20117;-76
2022/08/31 10:37:48;;;;;;;8.27;4.63;;;;;;;22.98;50.30;102101.19;5028360;28;20396;-76
2022/08/31 10:40:30;;;;;;;7.65;4.47;;;;;;;23.05;51.17;102091.94;5035319;28;20105;-76
2022/08/31 10:43:08;;;;;;;9.32;3.97;;;;;;;23.09;51.10;102093.47;5029856;28;20176;-76
2022/08/31 10:45:40;;;;;;;6.18;4.80;;;;;;;22.99;50.48;102088.72;5021721;28;20047;-77
2022/08/31 10:48:05;;;;;;;8.45;5.00;;;;;;;23.03;50.00;102088.50;5027150;28;20046;-76
2022/08/31 10:50:43;;;;;;;6.97;4.80;;;;;;;23.23;50.61;102087.34;5030999;28;20030;-76
2022/08/31 10:53:21;;;;;;;6.82;5.40;;;;;;;23.40;49.52;102089.03;5032859;28;20444;-75
2022/08/31 10:56:01;;;;;;;6.82;4.88;;;;;;;23.43;50.33;102094.19;5038132;28;20029;-76
2022/08/31 10:58:40;;;;;;;7.28;4.45;;;;;;;23.46;50.54;102088.69;5030505;28;20048;-76
2022/08/31 11:01:23;;;;;;;8.13;4.28;;;;;;;23.64;50.32;102100.06;5033565;28;20036;-77
2022/08/31 11:04:18;;;;;;;6.20;4.40;;;;;;;23.81;49.37;102088.47;5028069;28;20083;-76
2022/08/31 11:07:05;;;;;;;7.43;4.53;;;;;;;23.91;50.04;102086.97;5034158;28;20033;-75
2022/08/31 11:09:42;;;;;;;7.80;4.50;;;;;;;23.97;47.92;102088.38;5033562;28;20029;-76
2022/08/31 11:12:20;;;;;;;8.88;4.45;;;;;;;23.95;48.77;102085.81;5032328;28;20100;-76
2022/08/31 11:15:10;;;;;;;7.25;4.60;;;;;;;24.08;49.01;102085.09;5035782;28;20049;-76
2022/08/31 11:18:03;;;;;;;7.45;4.03;;;;;;;24.06;48.88;102090.50;5030345;28;20494;-72
2022/08/31 11:20:38;;;;;;;6.70;4.43;;;;;;;24.13;47.90;102090.97;5032869;28;20042;-72
2022/08/31 11:23:27;;;;;;;8.45;4.10;;;;;;;24.15;48.10;102089.09;5034243;28;20384;-72
2022/08/31 11:26:27;;;;;;;8.50;4.68;;;;;;;24.11;48.06;102080.44;5034582;28;20373;-72
2022/08/31 11:28:58;;;;;;;7.72;4.30;;;;;;;23.80;47.71;102082.25;5034653;28;20029;-72
2022/08/31 11:31:29;;;;;;;6.75;4.63;;;;;;;23.73;47.86;102069.41;5034244;28;20104;-72
2022/08/31 11:34:03;;;;;;;6.00;3.95;;;;;;;23.78;49.33;102073.53;5033581;28;20032;-72
2022/08/31 11:36:51;;;;;;;7.60;4.63;;;;;;;23.94;48.66;102084.13;5034017;28;20433;-71
2022/08/31 11:39:29;;;;;;;7.93;4.40;;;;;;;24.21;47.98;102083.38;5033525;28;20029;-72
2022/08/31 11:41:57;;;;;;;6.65;4.78;;;;;;;24.40;46.60;102077.78;5033787;28;20036;-72
2022/08/31 11:44:28;;;;;;;8.65;4.95;;;;;;;24.59;47.29;102069.50;5033554;28;20025;-72